createdAt,value
2023-02-18T00:00:32.328Z,88.62
2023-02-18T00:01:21.220Z,88.25
2023-02-18T00:02:14.212Z,88.26
2023-02-18T00:03:01.375Z,88.12
2023-02-18T00:03:48.655Z,87.69
2023-02-18T00:04:35.749Z,87.55
2023-02-18T00:05:23.179Z,87.25
2023-02-18T00:06:19.624Z,87.47
2023-02-18T00:07:06.605Z,87.81
2023-02-18T00:07:53.734Z,88.48
2023-02-18T00:08:42.581Z,88.10
2023-02-18T00:09:29.740Z,87.93
2023-02-18T00:10:17.168Z,87.61
2023-02-18T00:11:06.751Z,87.85
2023-02-18T00:11:54.712Z,87.93
2023-02-18T00:12:42.299Z,87.75
2023-02-18T00:13:29.260Z,87.74
2023-02-18T00:14:17.218Z,87.80
2023-02-18T00:15:04.613Z,87.76
2023-02-18T00:15:51.660Z,87.55
2023-02-18T00:16:38.857Z,87.97
2023-02-18T00:17:26.134Z,88.45
2023-02-18T00:18:13.128Z,88.29
2023-02-18T00:19:02.684Z,88.58
2023-02-18T00:19:49.790Z,88.51
2023-02-18T00:20:39.830Z,88.30
2023-02-18T00:21:27.290Z,88.30
2023-02-18T00:22:14.272Z,88.35
2023-02-18T00:23:01.304Z,88.46
2023-02-18T00:23:48.429Z,88.42
2023-02-18T00:24:35.518Z,88.62
2023-02-18T00:25:22.630Z,88.51
2023-02-18T00:26:13.273Z,88.56
2023-02-18T00:27:00.110Z,88.67
2023-02-18T00:27:47.410Z,88.64
2023-02-18T00:28:35.050Z,88.51
2023-02-18T00:29:22.061Z,88.79
2023-02-18T00:30:09.445Z,88.73
2023-02-18T00:30:56.801Z,88.71
2023-02-18T00:31:44.226Z,88.88
2023-02-18T00:32:31.344Z,89.12
2023-02-18T00:33:18.371Z,89.08
2023-02-18T00:34:05.993Z,88.62
2023-02-18T00:34:53.519Z,88.34
2023-02-18T00:35:40.500Z,88.39
2023-02-18T00:36:28.015Z,88.76
2023-02-18T00:37:15.068Z,88.53
2023-02-18T00:38:02.407Z,88.75
2023-02-18T00:38:52.154Z,88.83
2023-02-18T00:39:39.152Z,89.09
2023-02-18T00:40:26.292Z,89.23
2023-02-18T00:41:13.690Z,89.14
2023-02-18T00:42:00.569Z,88.64
2023-02-18T00:42:47.476Z,88.25
2023-02-18T00:43:34.432Z,88.12
2023-02-18T00:44:21.532Z,88.03
2023-02-18T00:45:09.067Z,87.77
2023-02-18T00:45:56.055Z,87.37
2023-02-18T00:46:43.475Z,87.30
2023-02-18T00:47:30.564Z,87.51
2023-02-18T00:48:17.720Z,88.33
2023-02-18T00:49:05.672Z,88.39
2023-02-18T00:49:52.589Z,88.36
2023-02-18T00:50:39.718Z,88.38
2023-02-18T00:51:26.948Z,88.31
2023-02-18T00:52:13.952Z,88.13
2023-02-18T00:53:01.138Z,87.90
2023-02-18T00:53:48.152Z,88.14
2023-02-18T00:54:35.303Z,88.12
2023-02-18T00:55:22.347Z,88.12
2023-02-18T00:56:09.949Z,88.05
2023-02-18T00:56:57.203Z,87.70
2023-02-18T00:57:44.260Z,87.43
2023-02-18T00:58:31.643Z,86.99
2023-02-18T00:59:18.717Z,86.82
2023-02-18T01:00:06.905Z,86.73
2023-02-18T01:00:55.222Z,86.92
2023-02-18T01:01:42.357Z,86.58
2023-02-18T01:02:29.470Z,85.89
2023-02-18T01:03:16.626Z,85.20
2023-02-18T01:04:03.714Z,84.56
2023-02-18T01:04:50.743Z,84.04
2023-02-18T01:05:38.661Z,83.80
2023-02-18T01:06:25.668Z,83.72
2023-02-18T01:07:12.797Z,83.70
2023-02-18T01:07:59.942Z,83.64
2023-02-18T01:08:46.984Z,84.13
2023-02-18T01:09:34.014Z,84.28
2023-02-18T01:10:21.406Z,84.01
2023-02-18T01:11:09.893Z,83.65
2023-02-18T01:11:56.928Z,83.38
2023-02-18T01:12:44.074Z,83.43
2023-02-18T01:13:31.517Z,83.98
2023-02-18T01:14:18.540Z,84.18
2023-02-18T01:15:07.157Z,84.07
2023-02-18T01:15:54.275Z,85.45
2023-02-18T01:16:41.408Z,84.26
2023-02-18T01:17:28.508Z,83.55
2023-02-18T01:18:15.674Z,83.08
2023-02-18T01:19:02.834Z,82.86
2023-02-18T01:19:49.896Z,82.65
2023-02-18T01:20:38.282Z,82.21
2023-02-18T01:21:25.288Z,82.17
2023-02-18T01:22:12.323Z,81.81
2023-02-18T01:22:59.439Z,81.60
2023-02-18T01:23:46.559Z,81.43
2023-02-18T01:24:33.839Z,81.31
2023-02-18T01:25:20.950Z,81.41
2023-02-18T01:26:09.142Z,81.41
2023-02-18T01:26:56.488Z,81.32
2023-02-18T01:27:43.893Z,81.42
2023-02-18T01:28:31.197Z,81.42
2023-02-18T01:29:18.280Z,81.88
2023-02-18T01:30:06.758Z,81.85
2023-02-18T01:30:54.570Z,81.73
2023-02-18T01:31:41.736Z,81.63
2023-02-18T01:32:28.836Z,81.23
2023-02-18T01:33:15.884Z,80.99
2023-02-18T01:34:03.010Z,80.89
2023-02-18T01:34:50.053Z,80.30
2023-02-18T01:35:41.128Z,79.84
2023-02-18T01:36:28.260Z,79.62
2023-02-18T01:37:15.797Z,79.53
2023-02-18T01:38:03.038Z,79.36
2023-02-18T01:38:50.131Z,79.21
2023-02-18T01:39:37.168Z,79.30
2023-02-18T01:40:27.200Z,79.48
2023-02-18T01:41:14.108Z,79.35
2023-02-18T01:42:01.158Z,79.35
2023-02-18T01:42:48.468Z,78.78
2023-02-18T01:43:35.606Z,78.41
2023-02-18T01:44:25.533Z,78.20
2023-02-18T01:45:34.550Z,77.76
2023-02-18T01:46:22.698Z,77.62
2023-02-18T01:47:09.907Z,77.27
2023-02-18T01:47:56.984Z,77.58
2023-02-18T01:48:54.353Z,77.70
2023-02-18T01:49:41.861Z,77.70
2023-02-18T01:50:28.875Z,77.82
2023-02-18T01:51:27.963Z,77.69
2023-02-18T01:52:18.712Z,76.87
2023-02-18T01:53:05.910Z,76.41
2023-02-18T01:54:11.659Z,75.77
2023-02-18T01:54:59.025Z,75.59
2023-02-18T01:55:47.018Z,75.59
2023-02-18T01:56:42.767Z,76.75
2023-02-18T01:57:36.107Z,76.94
2023-02-18T01:58:24.070Z,76.42
2023-02-18T01:59:14.386Z,76.72
2023-02-18T02:00:12.530Z,76.31
2023-02-18T02:00:59.576Z,76.01
2023-02-18T02:01:47.300Z,75.65
2023-02-18T02:02:37.035Z,75.04
2023-02-18T02:03:24.233Z,74.97
2023-02-18T02:04:11.670Z,74.97
2023-02-18T02:04:58.635Z,75.15
2023-02-18T02:05:45.548Z,75.29
2023-02-18T02:06:32.693Z,75.17
2023-02-18T02:07:21.383Z,75.28
2023-02-18T02:08:08.494Z,75.90
2023-02-18T02:08:59.032Z,76.49
2023-02-18T02:09:46.555Z,76.44
2023-02-18T02:11:16.224Z,76.41
2023-02-18T02:12:23.649Z,75.72
2023-02-18T02:13:15.831Z,76.40
2023-02-18T02:14:40.687Z,76.12
2023-02-18T02:15:39.733Z,76.18
2023-02-18T02:16:33.414Z,76.33
2023-02-18T02:17:38.903Z,76.47
2023-02-18T02:18:47.557Z,76.23
2023-02-18T02:19:40.641Z,75.93
2023-02-18T02:20:46.748Z,75.63
2023-02-18T02:21:54.036Z,75.79
2023-02-18T02:23:14.793Z,76.38
2023-02-18T02:24:36.075Z,75.28
2023-02-18T02:25:41.772Z,75.04
2023-02-18T02:27:07.002Z,75.39
2023-02-18T02:28:23.859Z,76.02
2023-02-18T02:30:47.726Z,75.24
2023-02-18T02:31:58.421Z,75.35
2023-02-18T02:32:59.713Z,75.64
2023-02-18T02:34:13.844Z,75.65
2023-02-18T02:35:06.222Z,75.93
2023-02-18T02:36:02.942Z,76.31
2023-02-18T02:37:25.547Z,75.99
2023-02-18T02:38:33.814Z,75.50
2023-02-18T02:39:31.722Z,75.48
2023-02-18T02:40:45.452Z,75.43
2023-02-18T02:41:50.562Z,75.64
2023-02-18T02:43:02.092Z,75.95
2023-02-18T02:44:01.973Z,76.23
2023-02-18T02:44:52.154Z,76.24
2023-02-18T02:46:16.998Z,76.06
2023-02-18T02:47:12.205Z,76.05
2023-02-18T02:48:04.685Z,75.97
2023-02-18T02:49:26.816Z,75.54
2023-02-18T02:50:25.646Z,75.11
2023-02-18T02:51:26.256Z,74.98
2023-02-18T02:52:22.693Z,75.09
2023-02-18T02:53:28.940Z,74.97
2023-02-18T02:54:21.778Z,75.26
2023-02-18T02:55:10.746Z,75.23
2023-02-18T02:55:57.602Z,75.00
2023-02-18T02:56:44.710Z,75.27
2023-02-18T02:57:31.621Z,75.42
2023-02-18T02:58:19.921Z,75.14
2023-02-18T02:59:09.800Z,75.11
2023-02-18T03:00:00.875Z,74.95
2023-02-18T03:01:08.030Z,75.27
2023-02-18T03:02:06.649Z,75.34
2023-02-18T03:03:08.969Z,75.59
2023-02-18T03:04:43.438Z,75.32
2023-02-18T03:05:43.988Z,75.24
2023-02-18T03:06:41.807Z,75.04
2023-02-18T03:07:48.532Z,74.86
2023-02-18T03:09:18.539Z,75.08
2023-02-18T03:10:08.117Z,74.79
2023-02-18T03:11:13.111Z,74.48
2023-02-18T03:12:18.539Z,74.52
2023-02-18T03:13:22.340Z,74.55
2023-02-18T03:14:21.821Z,74.54
2023-02-18T03:15:25.243Z,75.11
2023-02-18T03:16:44.121Z,75.41
2023-02-18T03:17:36.238Z,75.54
2023-02-18T03:18:34.623Z,75.93
2023-02-18T03:19:32.598Z,75.85
2023-02-18T03:20:27.889Z,75.75
2023-02-18T03:21:28.101Z,75.98
2023-02-18T03:22:25.998Z,75.76
2023-02-18T03:23:17.970Z,75.80
2023-02-18T03:24:18.318Z,75.84
2023-02-18T03:25:06.088Z,75.90
2023-02-18T03:25:53.579Z,75.68
2023-02-18T03:26:45.708Z,75.84
2023-02-18T03:27:35.591Z,75.84
2023-02-18T03:28:24.748Z,76.12
2023-02-18T03:29:12.839Z,76.08
2023-02-18T03:30:04.757Z,76.24
2023-02-18T03:30:54.079Z,76.31
2023-02-18T03:31:43.529Z,76.03
2023-02-18T03:32:32.086Z,76.30
2023-02-18T03:33:25.504Z,76.28
2023-02-18T03:34:19.046Z,76.29
2023-02-18T03:35:17.528Z,76.35
2023-02-18T03:36:04.797Z,76.59
2023-02-18T03:36:51.728Z,76.53
2023-02-18T03:37:44.069Z,76.59
2023-02-18T03:38:30.893Z,76.47
2023-02-18T03:39:20.181Z,76.28
2023-02-18T03:40:07.941Z,75.79
2023-02-18T03:40:54.902Z,75.92
2023-02-18T03:41:42.189Z,75.96
2023-02-18T03:42:29.751Z,76.12
2023-02-18T03:43:16.640Z,76.01
2023-02-18T03:44:08.100Z,75.96
2023-02-18T03:44:54.970Z,75.78
2023-02-18T03:45:41.833Z,75.82
2023-02-18T03:46:29.913Z,76.18
2023-02-18T03:47:16.739Z,76.52
2023-02-18T03:48:03.752Z,76.62
2023-02-18T03:48:50.629Z,76.80
2023-02-18T03:49:37.492Z,76.94
2023-02-18T03:50:24.801Z,76.85
2023-02-18T03:51:12.004Z,76.99
2023-02-18T03:51:58.882Z,77.15
2023-02-18T03:52:46.162Z,76.99
2023-02-18T03:53:32.959Z,76.81
2023-02-18T03:54:20.502Z,77.22
2023-02-18T03:55:07.627Z,77.48
2023-02-18T03:55:54.482Z,77.50
2023-02-18T03:56:41.607Z,77.68
2023-02-18T03:57:28.411Z,78.01
2023-02-18T03:58:15.356Z,77.87
2023-02-18T03:59:02.258Z,77.80
2023-02-18T03:59:49.120Z,77.65
2023-02-18T04:00:35.997Z,77.93
2023-02-18T04:01:23.578Z,77.63
2023-02-18T04:02:10.457Z,77.52
2023-02-18T04:02:57.283Z,77.73
2023-02-18T04:03:44.155Z,77.76
2023-02-18T04:04:31.222Z,77.54
2023-02-18T04:05:18.137Z,77.85
2023-02-18T04:06:05.295Z,78.06
2023-02-18T04:06:52.214Z,78.37
2023-02-18T04:07:39.173Z,78.19
2023-02-18T04:08:26.158Z,78.36
2023-02-18T04:09:13.065Z,78.15
2023-02-18T04:09:59.885Z,78.13
2023-02-18T04:10:46.733Z,78.15
2023-02-18T04:11:33.565Z,77.94
2023-02-18T04:12:20.770Z,77.74
2023-02-18T04:13:07.648Z,77.54
2023-02-18T04:13:54.491Z,77.92
2023-02-18T04:14:41.492Z,77.88
2023-02-18T04:15:28.348Z,78.05
2023-02-18T04:16:15.295Z,78.23
2023-02-18T04:17:02.233Z,78.47
2023-02-18T04:17:49.120Z,78.41
2023-02-18T04:18:36.024Z,78.55
2023-02-18T04:19:22.964Z,78.62
2023-02-18T04:20:10.565Z,78.78
2023-02-18T04:20:57.388Z,79.10
2023-02-18T04:21:44.228Z,79.14
2023-02-18T04:22:31.125Z,78.92
2023-02-18T04:23:18.172Z,78.72
2023-02-18T04:24:05.152Z,79.05
2023-02-18T04:24:52.016Z,78.95
2023-02-18T04:25:39.200Z,79.11
2023-02-18T04:26:26.191Z,79.47
2023-02-18T04:27:12.988Z,79.68
2023-02-18T04:27:59.955Z,79.63
2023-02-18T04:28:46.740Z,79.47
2023-02-18T04:29:33.643Z,79.38
2023-02-18T04:30:20.661Z,79.63
2023-02-18T04:31:07.675Z,79.28
2023-02-18T04:31:54.592Z,79.23
2023-02-18T04:32:41.484Z,79.51
2023-02-18T04:33:28.304Z,79.65
2023-02-18T04:34:15.165Z,79.96
2023-02-18T04:35:02.035Z,80.53
2023-02-18T04:35:48.882Z,80.52
2023-02-18T04:36:35.839Z,80.26
2023-02-18T04:37:22.706Z,80.03
2023-02-18T04:38:10.792Z,80.54
2023-02-18T04:38:57.673Z,80.36
2023-02-18T04:39:44.531Z,80.46
2023-02-18T04:40:31.365Z,80.72
2023-02-18T04:41:18.203Z,80.69
2023-02-18T04:42:09.237Z,80.86
2023-02-18T04:42:56.493Z,80.89
2023-02-18T04:43:43.324Z,80.85
2023-02-18T04:44:30.204Z,80.90
2023-02-18T04:45:17.073Z,80.92
2023-02-18T04:46:04.294Z,80.81
2023-02-18T04:46:51.162Z,80.82
2023-02-18T04:47:38.184Z,81.28
2023-02-18T04:48:25.014Z,81.28
2023-02-18T04:49:11.840Z,80.94
2023-02-18T04:49:58.653Z,80.81
2023-02-18T04:50:45.642Z,80.98
2023-02-18T04:51:32.509Z,81.69
2023-02-18T04:52:19.640Z,81.97
2023-02-18T04:53:06.480Z,82.06
2023-02-18T04:53:53.303Z,82.06
2023-02-18T04:54:40.217Z,82.14
2023-02-18T04:55:27.114Z,82.38
2023-02-18T04:56:14.113Z,82.33
2023-02-18T04:57:00.902Z,82.42
2023-02-18T04:57:47.757Z,82.16
2023-02-18T04:58:34.751Z,82.15
2023-02-18T04:59:21.689Z,81.91
2023-02-18T05:00:10.051Z,82.29
2023-02-18T05:01:04.345Z,82.37
2023-02-18T05:01:51.265Z,82.40
2023-02-18T05:02:38.079Z,82.33
2023-02-18T05:03:24.865Z,82.77
2023-02-18T05:04:11.738Z,82.77
2023-02-18T05:04:58.597Z,82.69
2023-02-18T05:05:46.111Z,83.08
2023-02-18T05:06:33.149Z,83.21
2023-02-18T05:07:20.057Z,83.30
2023-02-18T05:08:06.955Z,83.43
2023-02-18T05:08:53.782Z,83.54
2023-02-18T05:09:40.717Z,83.37
2023-02-18T05:10:27.767Z,83.09
2023-02-18T05:11:14.589Z,83.09
2023-02-18T05:12:01.412Z,82.89
2023-02-18T05:12:48.212Z,82.75
2023-02-18T05:13:35.535Z,82.68
2023-02-18T05:14:22.390Z,82.78
2023-02-18T05:15:09.921Z,82.69
2023-02-18T05:15:56.835Z,82.66
2023-02-18T05:16:43.688Z,82.61
2023-02-18T05:17:30.549Z,82.15
2023-02-18T05:18:17.370Z,81.90
2023-02-18T05:19:04.229Z,81.85
2023-02-18T05:19:51.286Z,81.74
2023-02-18T05:20:38.178Z,81.72
2023-02-18T05:21:25.070Z,81.35
2023-02-18T05:22:11.916Z,81.08
2023-02-18T05:22:58.780Z,81.26
2023-02-18T05:23:45.624Z,81.25
2023-02-18T05:24:32.468Z,81.03
2023-02-18T05:25:19.350Z,80.70
2023-02-18T05:26:06.600Z,80.77
2023-02-18T05:26:53.551Z,80.47
2023-02-18T05:27:40.442Z,80.31
2023-02-18T05:28:27.325Z,80.17
2023-02-18T05:29:14.151Z,80.04
2023-02-18T05:30:01.090Z,79.91
2023-02-18T05:30:48.035Z,80.01
2023-02-18T05:31:35.010Z,79.28
2023-02-18T05:32:22.259Z,79.04
2023-02-18T05:33:09.158Z,78.61
2023-02-18T05:33:55.961Z,78.73
2023-02-18T05:34:42.840Z,78.03
2023-02-18T05:35:29.678Z,77.92
2023-02-18T05:36:16.601Z,78.17
2023-02-18T05:37:03.541Z,77.94
2023-02-18T05:37:50.386Z,77.76
2023-02-18T05:38:37.210Z,77.68
2023-02-18T05:39:24.031Z,77.60
2023-02-18T05:40:12.327Z,77.43
2023-02-18T05:40:59.113Z,77.61
2023-02-18T05:41:45.969Z,77.52
2023-02-18T05:42:33.235Z,77.44
2023-02-18T05:43:20.104Z,77.10
2023-02-18T05:44:25.622Z,77.02
2023-02-18T05:45:12.451Z,77.24
2023-02-18T05:45:59.307Z,77.18
2023-02-18T05:46:46.250Z,77.18
2023-02-18T05:47:33.131Z,77.24
2023-02-18T05:48:19.989Z,77.19
2023-02-18T05:49:06.860Z,77.15
2023-02-18T05:49:53.749Z,77.04
2023-02-18T05:50:40.616Z,76.96
2023-02-18T05:51:27.518Z,77.19
2023-02-18T05:52:14.441Z,77.14
2023-02-18T05:53:01.269Z,77.04
2023-02-18T05:53:48.138Z,76.78
2023-02-18T05:54:35.623Z,76.77
2023-02-18T05:55:22.598Z,76.71
2023-02-18T05:56:09.681Z,76.64
2023-02-18T05:56:56.868Z,76.63
2023-02-18T05:57:43.786Z,76.60
2023-02-18T05:58:30.581Z,76.69
2023-02-18T05:59:17.650Z,76.59
2023-02-18T06:00:06.110Z,76.74
2023-02-18T06:00:52.959Z,76.56
2023-02-18T06:01:40.059Z,76.50
2023-02-18T06:02:26.923Z,76.28
2023-02-18T06:03:13.796Z,76.06
2023-02-18T06:04:00.560Z,76.25
2023-02-18T06:04:47.389Z,76.49
2023-02-18T06:05:34.261Z,76.32
2023-02-18T06:06:21.119Z,76.26
2023-02-18T06:07:07.968Z,76.24
2023-02-18T06:07:56.635Z,75.67
2023-02-18T06:08:43.673Z,75.68
2023-02-18T06:09:30.529Z,75.57
2023-02-18T06:10:18.680Z,75.54
2023-02-18T06:11:05.562Z,75.49
2023-02-18T06:11:52.538Z,75.40
2023-02-18T06:12:39.488Z,75.31
2023-02-18T06:13:26.393Z,75.16
2023-02-18T06:14:13.353Z,75.08
2023-02-18T06:15:00.158Z,75.00
2023-02-18T06:15:47.211Z,74.92
2023-02-18T06:16:34.168Z,74.63
2023-02-18T06:17:22.771Z,74.89
2023-02-18T06:18:09.628Z,74.99
2023-02-18T06:18:56.519Z,74.91
2023-02-18T06:19:43.369Z,74.84
2023-02-18T06:20:30.178Z,75.03
2023-02-18T06:21:17.149Z,75.17
2023-02-18T06:22:04.087Z,75.12
2023-02-18T06:22:50.913Z,75.27
2023-02-18T06:23:37.813Z,74.99
2023-02-18T06:24:24.754Z,75.01
2023-02-18T06:25:11.679Z,74.81
2023-02-18T06:25:58.579Z,75.04
2023-02-18T06:26:45.409Z,75.11
2023-02-18T06:27:32.246Z,74.73
2023-02-18T06:28:19.130Z,74.58
2023-02-18T06:29:06.017Z,74.78
2023-02-18T06:29:52.938Z,77.04
2023-02-18T06:30:39.877Z,74.71
2023-02-18T06:31:26.868Z,74.80
2023-02-18T06:32:14.008Z,75.57
2023-02-18T06:33:04.394Z,73.97
2023-02-18T06:33:51.299Z,75.53
2023-02-18T06:34:38.197Z,73.37
2023-02-18T06:35:25.094Z,73.36
2023-02-18T06:36:13.176Z,73.44
2023-02-18T06:37:01.371Z,74.38
2023-02-18T06:37:48.428Z,74.31
2023-02-18T06:38:35.937Z,73.97
2023-02-18T06:39:23.054Z,73.51
2023-02-18T06:40:10.197Z,73.00
2023-02-18T06:40:57.231Z,74.43
2023-02-18T06:41:44.156Z,72.27
2023-02-18T06:42:30.980Z,72.44
2023-02-18T06:43:17.982Z,72.20
2023-02-18T06:44:05.354Z,72.10
2023-02-18T06:44:52.273Z,72.22
2023-02-18T06:45:40.065Z,72.26
2023-02-18T06:46:27.083Z,72.62
2023-02-18T06:47:14.091Z,71.87
2023-02-18T06:48:00.964Z,72.70
2023-02-18T06:48:48.114Z,72.12
2023-02-18T06:49:36.672Z,72.17
2023-02-18T06:50:23.784Z,71.68
2023-02-18T06:51:10.759Z,71.24
2023-02-18T06:51:57.596Z,71.69
2023-02-18T06:52:44.493Z,71.26
2023-02-18T06:53:31.353Z,71.87
2023-02-18T06:54:18.355Z,71.82
2023-02-18T06:55:06.444Z,70.62
2023-02-18T06:55:53.356Z,70.79
2023-02-18T06:56:40.319Z,69.86
2023-02-18T06:57:27.262Z,70.12
2023-02-18T06:58:14.866Z,70.48
2023-02-18T06:59:01.734Z,69.81
2023-02-18T06:59:48.580Z,70.67
2023-02-18T07:00:36.027Z,70.19
2023-02-18T07:01:22.900Z,69.71
2023-02-18T07:02:13.032Z,69.84
2023-02-18T07:02:59.852Z,70.25
2023-02-18T07:03:49.752Z,70.60
2023-02-18T07:04:36.955Z,70.08
2023-02-18T07:05:23.862Z,70.16
2023-02-18T07:06:11.075Z,69.93
2023-02-18T07:06:58.092Z,69.52
2023-02-18T07:07:44.923Z,69.48
2023-02-18T07:08:33.314Z,69.52
2023-02-18T07:09:20.236Z,69.79
2023-02-18T07:10:08.015Z,69.61
2023-02-18T07:10:54.883Z,69.59
2023-02-18T07:11:41.732Z,69.56
2023-02-18T07:12:28.793Z,69.71
2023-02-18T07:13:15.929Z,69.68
2023-02-18T07:14:02.903Z,69.68
2023-02-18T07:14:49.821Z,69.81
2023-02-18T07:15:36.750Z,69.88
2023-02-18T07:16:23.961Z,69.80
2023-02-18T07:17:10.963Z,69.81
2023-02-18T07:17:58.004Z,69.98
2023-02-18T07:18:45.240Z,70.18
2023-02-18T07:19:32.251Z,70.23
2023-02-18T07:20:20.629Z,70.19
2023-02-18T07:21:07.541Z,70.16
2023-02-18T07:21:57.817Z,70.32
2023-02-18T07:22:44.909Z,70.32
2023-02-18T07:23:32.026Z,70.47
2023-02-18T07:24:18.904Z,70.44
2023-02-18T07:25:06.186Z,70.63
2023-02-18T07:25:53.080Z,70.28
2023-02-18T07:26:39.940Z,70.41
2023-02-18T07:27:27.021Z,70.49
2023-02-18T07:28:14.100Z,70.42
2023-02-18T07:29:01.131Z,70.36
2023-02-18T07:29:48.196Z,70.44
2023-02-18T07:30:35.371Z,70.57
2023-02-18T07:31:22.486Z,70.54
2023-02-18T07:32:12.840Z,70.46
2023-02-18T07:32:59.825Z,70.41
2023-02-18T07:33:46.860Z,70.51
2023-02-18T07:34:33.814Z,70.50
2023-02-18T07:35:21.716Z,70.63
2023-02-18T07:36:09.660Z,70.61
2023-02-18T07:36:56.973Z,70.63
2023-02-18T07:37:47.764Z,70.50
2023-02-18T07:38:34.732Z,70.33
2023-02-18T07:39:21.754Z,70.45
2023-02-18T07:40:10.935Z,70.39
2023-02-18T07:40:58.580Z,70.76
2023-02-18T07:41:45.623Z,70.74
2023-02-18T07:42:32.638Z,70.13
2023-02-18T07:43:19.795Z,69.98
2023-02-18T07:44:06.824Z,69.93
2023-02-18T07:44:53.732Z,69.88
2023-02-18T07:45:40.724Z,69.99
2023-02-18T07:46:27.902Z,69.90
2023-02-18T07:47:17.573Z,69.64
2023-02-18T07:48:04.632Z,69.59
2023-02-18T07:48:51.535Z,69.50
2023-02-18T07:49:38.503Z,69.48
2023-02-18T07:50:25.432Z,69.46
2023-02-18T07:51:13.596Z,69.53
2023-02-18T07:52:01.131Z,69.05
2023-02-18T07:52:48.103Z,68.76
2023-02-18T07:53:35.635Z,68.52
2023-02-18T07:54:22.805Z,68.59
2023-02-18T07:55:09.790Z,68.62
2023-02-18T07:56:00.507Z,68.71
2023-02-18T07:56:47.609Z,69.12
2023-02-18T07:57:54.709Z,68.89
2023-02-18T07:58:41.789Z,68.68
2023-02-18T07:59:28.893Z,68.94
2023-02-18T08:00:16.860Z,68.69
2023-02-18T08:01:10.796Z,68.80
2023-02-18T08:01:57.970Z,69.19
2023-02-18T08:02:44.950Z,69.25
2023-02-18T08:03:33.361Z,69.00
2023-02-18T08:04:20.431Z,68.77
2023-02-18T08:05:07.512Z,68.43
2023-02-18T08:05:55.122Z,68.51
2023-02-18T08:06:46.347Z,68.67
2023-02-18T08:07:33.500Z,68.65
2023-02-18T08:08:23.009Z,68.38
2023-02-18T08:09:10.222Z,68.04
2023-02-18T08:09:57.103Z,67.87
2023-02-18T08:10:44.378Z,67.76
2023-02-18T08:11:31.820Z,67.95
2023-02-18T08:12:18.876Z,67.81
2023-02-18T08:13:05.962Z,67.96
2023-02-18T08:13:52.916Z,68.23
2023-02-18T08:14:40.606Z,68.06
2023-02-18T08:15:27.635Z,68.14
2023-02-18T08:16:15.266Z,67.57
2023-02-18T08:17:02.360Z,66.97
2023-02-18T08:17:49.346Z,67.22
2023-02-18T08:18:36.374Z,67.14
2023-02-18T08:19:23.358Z,67.23
2023-02-18T08:20:10.960Z,67.08
2023-02-18T08:20:58.748Z,66.81
2023-02-18T08:21:46.181Z,66.37
2023-02-18T08:22:33.189Z,66.36
2023-02-18T08:23:22.408Z,65.88
2023-02-18T08:24:09.559Z,65.97
2023-02-18T08:24:56.721Z,66.16
2023-02-18T08:25:50.046Z,65.81
2023-02-18T08:26:37.298Z,65.94
2023-02-18T08:27:24.778Z,66.09
2023-02-18T08:28:11.782Z,66.41
2023-02-18T08:28:58.705Z,66.41
2023-02-18T08:29:45.636Z,66.51
2023-02-18T08:30:32.692Z,66.72
2023-02-18T08:31:22.734Z,66.08
2023-02-18T08:32:09.974Z,66.15
2023-02-18T08:32:57.629Z,66.48
2023-02-18T08:33:44.608Z,66.53
2023-02-18T08:34:31.509Z,66.24
2023-02-18T08:35:18.938Z,66.02
2023-02-18T08:36:08.133Z,65.81
2023-02-18T08:36:55.328Z,65.50
2023-02-18T08:37:52.664Z,65.57
2023-02-18T08:38:41.493Z,65.74
2023-02-18T08:39:28.472Z,65.58
2023-02-18T08:40:15.799Z,65.76
2023-02-18T08:41:04.550Z,65.93
2023-02-18T08:41:51.531Z,66.08
2023-02-18T08:42:38.539Z,66.01
2023-02-18T08:43:25.520Z,65.93
2023-02-18T08:44:12.499Z,66.12
2023-02-18T08:44:59.482Z,66.04
2023-02-18T08:45:46.547Z,65.72
2023-02-18T08:46:35.221Z,66.12
2023-02-18T08:48:16.594Z,66.00
2023-02-18T08:48:31.293Z,65.60
2023-02-18T08:49:21.206Z,65.61
2023-02-18T08:50:08.536Z,65.46
2023-02-18T08:50:55.660Z,65.43
2023-02-18T08:51:42.918Z,65.81
2023-02-18T08:52:29.928Z,65.87
2023-02-18T08:53:17.592Z,65.55
2023-02-18T08:54:04.748Z,65.60
2023-02-18T08:54:52.081Z,65.40
2023-02-18T08:55:41.056Z,65.57
2023-02-18T08:56:28.169Z,65.19
2023-02-18T08:57:15.222Z,65.28
2023-02-18T08:58:02.259Z,64.96
2023-02-18T08:58:49.218Z,65.59
2023-02-18T08:59:36.128Z,65.81
2023-02-18T09:00:23.366Z,65.57
2023-02-18T09:01:12.541Z,65.46
2023-02-18T09:01:59.577Z,65.51
2023-02-18T09:02:48.009Z,65.37
2023-02-18T09:03:35.734Z,65.51
2023-02-18T09:04:23.919Z,65.67
2023-02-18T09:05:11.413Z,65.86
2023-02-18T09:05:59.698Z,65.87
2023-02-18T09:06:47.100Z,65.26
2023-02-18T09:07:34.132Z,65.12
2023-02-18T09:08:21.059Z,65.12
2023-02-18T09:09:08.167Z,65.43
2023-02-18T09:09:55.240Z,65.25
2023-02-18T09:10:42.158Z,64.92
2023-02-18T09:11:29.356Z,64.60
2023-02-18T09:12:16.372Z,64.08
2023-02-18T09:13:03.519Z,64.13
2023-02-18T09:13:50.530Z,64.37
2023-02-18T09:14:37.480Z,63.88
2023-02-18T09:15:24.801Z,64.39
2023-02-18T09:16:20.517Z,64.06
2023-02-18T09:17:07.643Z,63.57
2023-02-18T09:17:54.772Z,63.88
2023-02-18T09:18:41.943Z,63.59
2023-02-18T09:19:28.858Z,63.69
2023-02-18T09:20:15.818Z,64.01
2023-02-18T09:21:04.169Z,63.93
2023-02-18T09:21:53.436Z,64.18
2023-02-18T09:22:40.998Z,63.86
2023-02-18T09:23:29.591Z,63.69
2023-02-18T09:24:16.988Z,63.96
2023-02-18T09:25:04.649Z,63.79
2023-02-18T09:25:51.535Z,63.58
2023-02-18T09:26:39.584Z,63.84
2023-02-18T09:27:26.658Z,63.48
2023-02-18T09:28:13.606Z,63.73
2023-02-18T09:29:00.604Z,63.69
2023-02-18T09:29:48.447Z,64.37
2023-02-18T09:30:35.513Z,64.83
2023-02-18T09:31:25.250Z,65.07
2023-02-18T09:32:15.966Z,65.07
2023-02-18T09:33:06.986Z,65.11
2023-02-18T09:34:01.843Z,64.76
2023-02-18T09:34:48.865Z,64.64
2023-02-18T09:35:39.982Z,64.40
2023-02-18T09:36:27.811Z,64.87
2023-02-18T09:37:15.902Z,64.51
2023-02-18T09:38:03.572Z,63.77
2023-02-18T09:38:50.811Z,63.34
2023-02-18T09:39:38.314Z,63.49
2023-02-18T09:40:28.624Z,63.52
2023-02-18T09:41:29.516Z,63.28
2023-02-18T09:42:18.763Z,63.26
2023-02-18T09:43:05.794Z,63.22
2023-02-18T09:43:56.198Z,62.64
2023-02-18T09:44:52.319Z,62.72
2023-02-18T09:45:39.403Z,62.53
2023-02-18T09:46:33.795Z,62.55
2023-02-18T09:47:40.037Z,61.99
2023-02-18T09:48:33.558Z,62.60
2023-02-18T09:49:24.192Z,62.54
2023-02-18T09:50:40.412Z,62.46
2023-02-18T09:51:27.522Z,61.82
2023-02-18T09:52:24.040Z,61.83
2023-02-18T09:53:13.017Z,62.02
2023-02-18T09:54:00.126Z,61.61
2023-02-18T09:54:47.171Z,61.79
2023-02-18T09:55:39.064Z,62.06
2023-02-18T09:56:32.080Z,61.47
2023-02-18T09:57:29.647Z,61.81
2023-02-18T09:58:22.072Z,62.09
2023-02-18T09:59:15.556Z,61.30
2023-02-18T10:00:07.005Z,61.74
2023-02-18T10:01:12.401Z,61.80
2023-02-18T10:02:02.264Z,61.97
2023-02-18T10:03:02.312Z,61.89
2023-02-18T10:03:49.458Z,61.99
2023-02-18T10:04:41.939Z,61.62
2023-02-18T10:05:30.507Z,61.57
2023-02-18T10:06:24.654Z,61.31
2023-02-18T10:07:22.198Z,61.67
2023-02-18T10:08:23.467Z,60.83
2023-02-18T10:09:20.786Z,60.52
2023-02-18T10:10:22.563Z,60.73
2023-02-18T10:11:24.380Z,60.55
2023-02-18T10:12:21.261Z,60.45
2023-02-18T10:13:17.990Z,60.53
2023-02-18T10:14:10.883Z,60.16
2023-02-18T10:15:00.326Z,59.04
2023-02-18T10:15:48.767Z,59.67
2023-02-18T10:16:35.887Z,59.70
2023-02-18T10:17:28.104Z,59.49
2023-02-18T10:18:23.143Z,59.08
2023-02-18T10:19:15.874Z,59.21
2023-02-18T10:20:08.365Z,58.89
2023-02-18T10:21:10.766Z,58.89
2023-02-18T10:21:57.894Z,58.55
2023-02-18T10:22:45.021Z,59.01
2023-02-18T10:23:34.868Z,59.24
2023-02-18T10:24:29.638Z,59.78
2023-02-18T10:25:19.795Z,60.26
2023-02-18T10:26:14.249Z,60.19
2023-02-18T10:27:02.769Z,59.57
2023-02-18T10:27:51.502Z,59.38
2023-02-18T10:28:38.923Z,59.44
2023-02-18T10:29:26.617Z,59.79
2023-02-18T10:30:38.112Z,59.87
2023-02-18T10:31:37.420Z,60.65
2023-02-18T10:32:28.246Z,60.77
2023-02-18T10:33:32.606Z,62.11
2023-02-18T10:34:34.446Z,61.88
2023-02-18T10:35:25.914Z,61.42
2023-02-18T10:36:24.587Z,61.56
2023-02-18T10:37:47.616Z,61.04
2023-02-18T10:38:42.869Z,60.81
2023-02-18T10:39:52.386Z,60.86
2023-02-18T10:40:51.225Z,60.86
2023-02-18T10:42:13.607Z,59.88
2023-02-18T10:43:37.995Z,60.27